createdAt,value
2023-04-21T00:00:51.564Z,99.90
2023-04-21T00:03:20.373Z,99.90
2023-04-21T00:05:48.500Z,99.90
2023-04-21T00:08:15.834Z,99.90
2023-04-21T00:10:42.632Z,99.90
2023-04-21T00:13:09.565Z,99.90
2023-04-21T00:15:38.556Z,99.90
2023-04-21T00:18:06.306Z,99.90
2023-04-21T00:20:33.297Z,1.00
2023-04-21T00:23:00.275Z,1.00
2023-04-21T00:25:27.033Z,1.00
2023-04-21T00:27:53.867Z,1.00
2023-04-21T00:30:20.695Z,1.00
2023-04-21T00:32:47.603Z,1.00
2023-04-21T00:35:14.466Z,1.00
2023-04-21T00:40:09.114Z,1.00
2023-04-21T00:42:36.081Z,1.00
2023-04-21T00:45:06.305Z,1.00
2023-04-21T00:47:33.178Z,1.00
2023-04-21T00:50:00.101Z,1.00
2023-04-21T00:52:28.113Z,1.00
2023-04-21T00:54:55.196Z,1.00
2023-04-21T00:57:22.053Z,1.00
2023-04-21T00:59:49.893Z,1.00
2023-04-21T01:02:17.569Z,1.00
2023-04-21T01:04:45.713Z,1.00
2023-04-21T01:07:12.826Z,1.00
2023-04-21T01:09:40.110Z,1.00
2023-04-21T01:12:10.576Z,1.00
2023-04-21T01:14:38.379Z,1.00
2023-04-21T01:17:06.317Z,1.00
2023-04-21T01:19:35.777Z,1.00
2023-04-21T01:22:12.422Z,1.00
2023-04-21T01:24:47.139Z,1.00
2023-04-21T01:27:21.245Z,1.00
2023-04-21T01:29:49.179Z,1.00
2023-04-21T01:32:17.425Z,1.00
2023-04-21T01:34:44.590Z,1.00
2023-04-21T01:37:13.242Z,1.00
2023-04-21T01:39:40.510Z,1.00
2023-04-21T01:42:07.361Z,1.00
2023-04-21T01:44:34.508Z,1.00
2023-04-21T01:47:01.654Z,1.00
2023-04-21T01:49:28.422Z,1.00
2023-04-21T01:51:55.161Z,1.00
2023-04-21T01:54:21.904Z,1.00
2023-04-21T01:56:48.850Z,1.00
2023-04-21T01:59:15.795Z,1.00
2023-04-21T02:01:43.245Z,1.00
2023-04-21T02:04:10.179Z,1.00
2023-04-21T02:06:36.977Z,1.00
2023-04-21T02:09:03.753Z,1.00
2023-04-21T02:11:30.561Z,1.00
2023-04-21T02:13:57.317Z,1.00
2023-04-21T02:16:26.786Z,1.00
2023-04-21T02:18:54.199Z,1.00
2023-04-21T02:21:23.852Z,1.00
2023-04-21T02:23:51.214Z,1.00
2023-04-21T02:26:18.530Z,1.00
2023-04-21T02:28:45.470Z,1.00
2023-04-21T02:31:12.344Z,1.00
2023-04-21T02:33:39.208Z,1.00
2023-04-21T02:36:06.176Z,1.00
2023-04-21T02:38:33.059Z,1.00
2023-04-21T02:40:59.896Z,1.00
2023-04-21T02:43:26.857Z,1.00
2023-04-21T02:45:53.589Z,1.00
2023-04-21T02:48:23.204Z,1.00
2023-04-21T02:50:50.650Z,1.00
2023-04-21T02:53:17.400Z,1.00
2023-04-21T02:55:44.240Z,1.00
2023-04-21T02:58:11.162Z,1.00
2023-04-21T03:00:38.045Z,1.00
2023-04-21T03:03:05.180Z,1.00
2023-04-21T03:05:31.983Z,1.00
2023-04-21T03:07:58.714Z,1.00
2023-04-21T03:10:25.484Z,1.00
2023-04-21T03:12:52.280Z,1.00
2023-04-21T03:15:19.679Z,1.00
2023-04-21T03:17:46.505Z,1.00
2023-04-21T03:20:13.412Z,1.00
2023-04-21T03:22:40.280Z,1.00
2023-04-21T03:25:07.730Z,1.00
2023-04-21T03:27:35.002Z,1.00
2023-04-21T03:30:01.747Z,1.00
2023-04-21T03:32:28.663Z,1.00
2023-04-21T03:34:55.492Z,1.00
2023-04-21T03:37:22.444Z,1.00
2023-04-21T03:39:49.339Z,1.00
2023-04-21T03:42:16.100Z,1.00
2023-04-21T03:44:42.843Z,1.00
2023-04-21T03:47:09.651Z,1.00
2023-04-21T03:49:36.418Z,1.00
2023-04-21T03:52:03.310Z,1.00
2023-04-21T03:54:30.197Z,1.00
2023-04-21T03:56:56.924Z,1.00
2023-04-21T03:59:23.664Z,1.00
2023-04-21T04:01:50.638Z,1.00
2023-04-21T04:04:17.540Z,1.00
2023-04-21T04:06:44.480Z,1.00
2023-04-21T04:09:11.379Z,1.00
2023-04-21T04:11:38.172Z,1.00
2023-04-21T04:14:04.927Z,1.00
2023-04-21T04:16:33.702Z,1.00
2023-04-21T04:19:00.559Z,1.00
2023-04-21T04:21:28.665Z,1.00
2023-04-21T04:23:55.893Z,1.00
2023-04-21T04:26:24.839Z,1.00
2023-04-21T04:28:52.371Z,1.00
2023-04-21T04:31:19.678Z,1.00
2023-04-21T04:33:46.475Z,1.00
2023-04-21T04:36:13.387Z,1.00
2023-04-21T04:38:40.403Z,1.00
2023-04-21T04:41:09.113Z,1.00
2023-04-21T04:43:41.939Z,1.00
2023-04-21T04:46:13.625Z,1.00
2023-04-21T04:48:40.696Z,1.00
2023-04-21T04:51:07.510Z,1.00
2023-04-21T04:53:34.280Z,1.00
2023-04-21T04:56:01.153Z,1.00
2023-04-21T04:58:27.944Z,1.00
2023-04-21T05:00:54.712Z,1.00
2023-04-21T05:03:21.669Z,1.00
2023-04-21T05:05:48.797Z,1.00
2023-04-21T05:08:17.868Z,1.00
2023-04-21T05:10:44.992Z,1.00
2023-04-21T05:13:11.800Z,1.00
2023-04-21T05:15:38.586Z,1.00
2023-04-21T05:18:05.443Z,1.00
2023-04-21T05:20:32.326Z,1.00
2023-04-21T05:22:59.068Z,1.00
2023-04-21T05:25:26.122Z,1.00
2023-04-21T05:27:53.350Z,1.00
2023-04-21T05:30:20.253Z,1.00
2023-04-21T05:32:47.119Z,1.00
2023-04-21T05:35:13.916Z,1.00
2023-04-21T05:37:40.983Z,1.00
2023-04-21T05:40:08.013Z,1.00
2023-04-21T05:42:34.835Z,1.00
2023-04-21T05:45:01.681Z,1.00
2023-04-21T05:47:28.562Z,1.00
2023-04-21T05:49:55.780Z,1.00
2023-04-21T05:52:22.581Z,1.00
2023-04-21T05:54:49.413Z,1.00
2023-04-21T05:57:16.883Z,1.00
2023-04-21T05:59:43.922Z,1.00
2023-04-21T06:02:11.504Z,1.00
2023-04-21T06:04:38.742Z,1.00
2023-04-21T06:07:07.072Z,1.00
2023-04-21T06:09:34.451Z,1.00
2023-04-21T06:12:01.982Z,1.00
2023-04-21T06:14:28.776Z,1.00
2023-04-21T06:16:55.538Z,99.90
2023-04-21T06:19:22.353Z,99.90
2023-04-21T06:21:49.208Z,99.90
2023-04-21T06:24:16.330Z,99.90
2023-04-21T06:26:43.153Z,99.90
2023-04-21T06:29:09.882Z,99.90
2023-04-21T06:31:36.712Z,99.90
2023-04-21T06:34:03.545Z,99.90
2023-04-21T06:36:30.305Z,99.90
2023-04-21T06:38:57.110Z,99.90
2023-04-21T06:41:24.980Z,99.90
2023-04-21T06:43:51.796Z,99.90
2023-04-21T06:46:18.738Z,99.90
2023-04-21T06:48:45.561Z,99.90
2023-04-21T06:51:12.318Z,99.90
2023-04-21T06:53:39.052Z,99.90
2023-04-21T06:56:05.960Z,99.90
2023-04-21T06:58:32.694Z,99.90
2023-04-21T07:00:59.512Z,99.90
2023-04-21T07:03:26.528Z,99.90
2023-04-21T07:05:53.388Z,99.90
2023-04-21T07:08:20.122Z,99.90
2023-04-21T07:10:46.989Z,99.90
2023-04-21T07:13:13.797Z,99.90
2023-04-21T07:15:41.045Z,99.90
2023-04-21T07:18:07.875Z,99.90
2023-04-21T07:20:34.720Z,99.90
2023-04-21T07:23:01.531Z,99.90
2023-04-21T07:25:28.283Z,99.90
2023-04-21T07:27:55.090Z,99.90
2023-04-21T07:30:21.958Z,99.90
2023-04-21T07:32:48.753Z,99.90
2023-04-21T07:35:15.849Z,99.90
2023-04-21T07:37:42.659Z,99.90
2023-04-21T07:40:09.761Z,99.90
2023-04-21T07:42:36.486Z,99.90
2023-04-21T07:45:03.755Z,99.90
2023-04-21T07:47:30.609Z,99.90
2023-04-21T07:49:57.506Z,99.90
2023-04-21T07:52:24.506Z,99.90
2023-04-21T07:54:51.658Z,99.90
2023-04-21T07:57:18.385Z,99.90
2023-04-21T07:59:45.221Z,99.90
2023-04-21T08:02:12.015Z,99.90
2023-04-21T08:04:38.925Z,99.90
2023-04-21T08:07:06.263Z,99.90
2023-04-21T08:09:33.205Z,99.90
2023-04-21T08:14:28.110Z,99.90
2023-04-21T08:21:51.277Z,99.90
2023-04-21T08:24:18.215Z,99.90
2023-04-21T08:26:45.775Z,99.90
2023-04-21T08:29:13.544Z,99.90
2023-04-21T08:31:40.436Z,95.80
2023-04-21T08:34:07.391Z,32.30
2023-04-21T08:36:34.648Z,24.20
2023-04-21T08:39:01.636Z,1.00
2023-04-21T08:41:28.452Z,1.00
2023-04-21T08:43:55.389Z,1.00
2023-04-21T08:46:22.972Z,1.00
2023-04-21T08:48:49.884Z,1.00
2023-04-21T08:51:22.209Z,1.00
2023-04-21T08:53:49.095Z,1.00
2023-04-21T08:56:15.938Z,1.00
2023-04-21T08:58:42.735Z,1.00
2023-04-21T09:01:09.620Z,99.90
2023-04-21T09:03:36.633Z,1.00
2023-04-21T09:06:05.585Z,99.90
2023-04-21T09:08:34.663Z,99.90
2023-04-21T09:11:01.842Z,99.90
2023-04-21T09:13:31.505Z,99.90
2023-04-21T09:18:37.114Z,99.90
2023-04-21T09:21:09.757Z,99.90
2023-04-21T09:23:39.990Z,99.90
2023-04-21T09:26:07.384Z,99.90
2023-04-21T09:28:34.123Z,99.90
2023-04-21T09:31:00.929Z,99.90
2023-04-21T09:33:34.383Z,99.90
2023-04-21T09:36:06.170Z,99.90
2023-04-21T09:38:32.910Z,99.90
2023-04-21T09:41:00.001Z,99.90
2023-04-21T09:43:26.781Z,99.90
2023-04-21T09:45:54.561Z,99.90
2023-04-21T09:48:22.635Z,99.90
2023-04-21T09:53:21.383Z,99.90
2023-04-21T09:55:49.373Z,99.90
2023-04-21T09:58:16.832Z,99.90
2023-04-21T10:00:43.755Z,99.90
2023-04-21T10:03:12.161Z,99.90
2023-04-21T10:05:42.084Z,99.90
2023-04-21T10:08:11.789Z,99.90
2023-04-21T10:10:38.879Z,99.90
2023-04-21T10:13:05.833Z,99.90
2023-04-21T10:15:33.591Z,99.90
2023-04-21T10:18:17.398Z,99.90
2023-04-21T10:20:53.914Z,99.90
2023-04-21T10:23:46.724Z,99.90
2023-04-21T10:26:13.535Z,99.90
2023-04-21T10:28:43.150Z,99.90
2023-04-21T10:31:29.573Z,99.90
2023-04-21T10:34:02.504Z,99.90
2023-04-21T10:36:29.279Z,99.90
2023-04-21T10:38:57.461Z,99.90
2023-04-21T10:41:28.302Z,99.90
2023-04-21T10:43:57.945Z,99.90
2023-04-21T10:46:38.188Z,99.90
2023-04-21T10:49:08.847Z,99.90
2023-04-21T10:51:54.350Z,99.90
2023-04-21T10:54:26.053Z,99.90
2023-04-21T10:56:53.799Z,99.90
2023-04-21T10:59:20.930Z,99.90
2023-04-21T11:01:47.822Z,99.90
2023-04-21T11:04:18.324Z,99.90
2023-04-21T11:07:05.114Z,99.90
2023-04-21T11:09:32.233Z,99.90
2023-04-21T11:11:59.521Z,99.90
2023-04-21T11:14:26.287Z,99.90
2023-04-21T11:16:53.141Z,99.90
2023-04-21T11:19:24.318Z,99.90
2023-04-21T11:21:51.166Z,99.90
2023-04-21T11:24:18.086Z,99.90
2023-04-21T11:26:45.092Z,99.90
2023-04-21T11:29:12.246Z,99.90
2023-04-21T11:31:40.154Z,99.90
2023-04-21T11:34:07.204Z,99.90
2023-04-21T11:36:39.025Z,99.90
2023-04-21T11:39:10.589Z,99.90
2023-04-21T11:41:44.256Z,99.90
2023-04-21T11:44:11.944Z,99.90
2023-04-21T11:46:44.635Z,99.90
2023-04-21T11:49:12.443Z,99.90
2023-04-21T11:51:40.224Z,99.90
2023-04-21T11:54:08.175Z,99.90
2023-04-21T11:56:38.646Z,99.90
2023-04-21T11:59:09.266Z,99.90
2023-04-21T12:01:42.393Z,99.90
2023-04-21T12:04:13.648Z,99.90
2023-04-21T12:06:40.533Z,99.90
2023-04-21T12:09:07.306Z,99.90
2023-04-21T12:11:34.462Z,99.90
2023-04-21T12:14:01.604Z,99.90
2023-04-21T12:16:29.088Z,99.90
2023-04-21T12:18:56.774Z,99.90
2023-04-21T12:21:29.528Z,99.90
2023-04-21T12:23:57.208Z,99.90
2023-04-21T12:26:24.122Z,99.90
2023-04-21T12:28:51.471Z,99.90
2023-04-21T12:31:18.762Z,99.90
2023-04-21T12:33:45.712Z,99.90
2023-04-21T12:36:12.545Z,99.90
2023-04-21T12:38:39.315Z,99.90
2023-04-21T12:41:06.174Z,99.90
2023-04-21T12:43:32.956Z,99.90
2023-04-21T12:45:59.917Z,99.90
2023-04-21T12:48:26.748Z,99.90
2023-04-21T12:50:53.574Z,99.90
2023-04-21T12:53:20.361Z,99.90
2023-04-21T12:56:01.096Z,99.90
2023-04-21T12:58:30.878Z,99.90
2023-04-21T13:00:57.664Z,99.90
2023-04-21T13:03:24.602Z,99.90
2023-04-21T13:05:51.816Z,99.90
2023-04-21T13:08:18.559Z,99.90
2023-04-21T13:10:46.013Z,99.90
2023-04-21T13:13:12.867Z,99.90
2023-04-21T13:15:39.671Z,99.90
2023-04-21T13:18:06.463Z,99.90
2023-04-21T13:20:33.225Z,99.90
2023-04-21T13:22:59.976Z,99.90
2023-04-21T13:25:26.961Z,99.90
2023-04-21T13:32:48.614Z,99.90
2023-04-21T13:35:15.535Z,99.90
2023-04-21T13:37:42.369Z,99.90
2023-04-21T13:40:10.130Z,99.90
2023-04-21T13:42:37.943Z,99.90
2023-04-21T13:45:05.500Z,99.90
2023-04-21T13:47:32.812Z,99.90
2023-04-21T13:50:00.042Z,99.90
2023-04-21T13:52:27.158Z,99.90
2023-04-21T13:54:54.337Z,99.90
2023-04-21T13:57:21.326Z,99.90
2023-04-21T13:59:48.093Z,99.90
2023-04-21T14:02:15.031Z,99.90
2023-04-21T14:04:42.220Z,99.90
2023-04-21T14:07:09.377Z,99.90
2023-04-21T14:09:36.177Z,99.90
2023-04-21T14:12:03.563Z,99.90
2023-04-21T14:14:38.838Z,99.90
2023-04-21T14:17:07.511Z,99.90
2023-04-21T14:19:35.190Z,99.90
2023-04-21T14:22:02.497Z,99.90
2023-04-21T14:24:30.509Z,99.90
2023-04-21T14:26:57.618Z,99.90
2023-04-21T14:29:24.426Z,99.90
2023-04-21T14:31:53.454Z,99.90
2023-04-21T14:34:20.376Z,99.90
2023-04-21T14:36:50.067Z,99.90
2023-04-21T14:39:17.091Z,1.00
2023-04-21T14:41:43.933Z,1.00
2023-04-21T14:44:10.826Z,1.00
2023-04-21T14:46:38.128Z,1.00
2023-04-21T14:49:05.923Z,1.00
2023-04-21T14:51:33.038Z,1.00
2023-04-21T14:54:00.084Z,1.00
2023-04-21T14:56:27.047Z,1.00
2023-04-21T14:58:53.824Z,1.00
2023-04-21T15:01:22.089Z,1.00
2023-04-21T15:03:50.106Z,1.00
2023-04-21T15:06:16.897Z,1.00
2023-04-21T15:08:43.689Z,1.00
2023-04-21T15:11:10.521Z,1.00
2023-04-21T15:13:37.678Z,1.00
2023-04-21T15:16:04.904Z,1.00
2023-04-21T15:18:31.637Z,1.00
2023-04-21T15:20:58.370Z,1.00
2023-04-21T15:23:25.150Z,1.00
2023-04-21T15:25:52.316Z,1.00
2023-04-21T15:28:19.073Z,1.00
2023-04-21T15:30:45.931Z,1.00
2023-04-21T15:33:12.824Z,1.00
2023-04-21T15:35:39.620Z,1.00
2023-04-21T15:38:06.517Z,1.00
2023-04-21T15:40:33.379Z,5.30
2023-04-21T15:43:00.220Z,9.90
2023-04-21T15:45:27.024Z,11.80
2023-04-21T15:47:53.878Z,1.00
2023-04-21T15:50:20.742Z,1.00
2023-04-21T15:52:47.604Z,26.80
2023-04-21T15:55:15.299Z,36.90
2023-04-21T15:57:42.066Z,30.30
2023-04-21T16:00:10.467Z,21.70
2023-04-21T16:02:37.775Z,33.70
2023-04-21T16:05:05.054Z,30.10
2023-04-21T16:07:32.031Z,37.20
2023-04-21T16:09:58.875Z,23.90
2023-04-21T16:12:25.733Z,22.10
2023-04-21T16:14:57.687Z,56.00
2023-04-21T16:17:28.482Z,94.10
2023-04-21T16:19:55.566Z,99.60
2023-04-21T16:22:22.390Z,99.90
2023-04-21T16:24:49.886Z,99.90
2023-04-21T16:27:16.958Z,99.90
2023-04-21T16:29:43.684Z,99.90
2023-04-21T16:32:10.660Z,99.90
2023-04-21T16:34:37.849Z,99.90
2023-04-21T16:37:04.840Z,98.60
2023-04-21T16:39:31.568Z,68.10
2023-04-21T16:41:58.413Z,17.00
2023-04-21T16:44:25.220Z,29.90
2023-04-21T16:46:52.005Z,45.70
2023-04-21T16:49:18.844Z,93.10
2023-04-21T16:51:45.707Z,33.90
2023-04-21T16:54:12.465Z,1.00
2023-04-21T16:56:39.380Z,1.00
2023-04-21T16:59:06.876Z,1.00
2023-04-21T17:01:33.668Z,1.00
2023-04-21T17:04:00.649Z,1.00
2023-04-21T17:06:27.539Z,1.00
2023-04-21T17:08:59.888Z,1.00
2023-04-21T17:11:27.616Z,1.00
2023-04-21T17:13:54.862Z,1.00
2023-04-21T17:16:21.663Z,1.00
2023-04-21T17:18:48.526Z,1.00
2023-04-21T17:21:15.348Z,1.00
2023-04-21T17:23:42.137Z,1.00
2023-04-21T17:26:12.253Z,1.00
2023-04-21T17:28:39.847Z,1.00
2023-04-21T17:31:15.077Z,1.00
2023-04-21T17:33:42.596Z,1.00
2023-04-21T17:36:09.350Z,1.00
2023-04-21T17:38:36.130Z,1.00
2023-04-21T17:41:04.591Z,1.00
2023-04-21T17:43:31.439Z,1.00
2023-04-21T17:45:58.248Z,25.50
2023-04-21T17:48:25.046Z,80.90
2023-04-21T17:50:51.760Z,81.60
2023-04-21T17:53:18.959Z,99.20
2023-04-21T17:55:45.846Z,83.20
2023-04-21T17:58:12.763Z,71.90
2023-04-21T18:00:39.637Z,68.50
2023-04-21T18:03:06.614Z,64.80
2023-04-21T18:05:33.828Z,36.20
2023-04-21T18:08:00.889Z,27.40
2023-04-21T18:10:29.795Z,13.10
2023-04-21T18:12:57.325Z,1.00
2023-04-21T18:15:24.338Z,3.10
2023-04-21T18:17:53.154Z,10.10
2023-04-21T18:20:20.390Z,9.60
2023-04-21T18:22:47.492Z,6.90
2023-04-21T18:25:14.339Z,1.00
2023-04-21T18:27:41.200Z,7.90
2023-04-21T18:30:11.398Z,10.30
2023-04-21T18:32:38.769Z,27.70
2023-04-21T18:35:06.365Z,20.10
2023-04-21T18:37:33.433Z,21.00
2023-04-21T18:40:00.348Z,59.30
2023-04-21T18:42:27.247Z,75.00
2023-04-21T18:44:57.659Z,99.90
2023-04-21T18:47:25.066Z,99.90
2023-04-21T18:49:52.692Z,99.90
2023-04-21T18:52:19.438Z,99.90
2023-04-21T18:54:46.214Z,99.90
2023-04-21T18:57:12.975Z,99.90
2023-04-21T18:59:39.689Z,99.90
2023-04-21T19:02:07.588Z,99.90
2023-04-21T19:04:34.890Z,99.90
2023-04-21T19:07:01.971Z,99.90
2023-04-21T19:09:28.930Z,99.90
2023-04-21T19:11:55.808Z,99.90
2023-04-21T19:14:22.685Z,99.90
2023-04-21T19:16:50.764Z,99.90
2023-04-21T19:19:19.384Z,99.90
2023-04-21T19:21:46.169Z,99.90
2023-04-21T19:24:12.896Z,99.90
2023-04-21T19:26:39.673Z,99.90
2023-04-21T19:29:08.736Z,99.90
2023-04-21T19:31:35.716Z,99.90
2023-04-21T19:34:02.447Z,99.90
2023-04-21T19:36:29.269Z,99.90
2023-04-21T19:38:56.016Z,99.90
2023-04-21T19:41:22.840Z,99.90
2023-04-21T19:43:49.609Z,99.90
2023-04-21T19:46:16.557Z,99.90
2023-04-21T19:48:43.335Z,99.90
2023-04-21T19:51:10.091Z,99.90
2023-04-21T19:53:36.974Z,99.90
2023-04-21T19:56:03.747Z,99.90
2023-04-21T19:58:40.247Z,69.10
2023-04-21T20:01:07.492Z,49.30
2023-04-21T20:03:34.620Z,73.00
2023-04-21T20:06:02.298Z,82.70
2023-04-21T20:08:29.338Z,58.50
2023-04-21T20:10:56.135Z,49.80
2023-04-21T20:13:22.856Z,32.30
2023-04-21T20:15:49.730Z,6.30
2023-04-21T20:18:16.592Z,1.00
2023-04-21T20:20:43.391Z,1.00
2023-04-21T20:23:10.281Z,1.00
2023-04-21T20:25:37.091Z,1.00
2023-04-21T20:28:03.864Z,1.00
2023-04-21T20:30:30.716Z,1.00
2023-04-21T20:32:57.564Z,1.00
2023-04-21T20:35:24.313Z,1.00
2023-04-21T20:37:53.430Z,1.00
2023-04-21T20:40:21.782Z,1.00
2023-04-21T20:42:49.467Z,1.00
2023-04-21T20:45:17.413Z,1.00
2023-04-21T20:47:44.454Z,1.00
2023-04-21T20:50:11.459Z,1.00
2023-04-21T20:52:38.277Z,5.10
2023-04-21T20:55:05.317Z,10.20
2023-04-21T20:57:33.022Z,20.50
2023-04-21T20:59:59.835Z,27.80
2023-04-21T21:02:26.787Z,52.60
2023-04-21T21:04:53.628Z,72.30
2023-04-21T21:07:20.381Z,68.20
2023-04-21T21:09:47.192Z,74.40
2023-04-21T21:12:13.948Z,94.80
2023-04-21T21:14:40.712Z,99.90
2023-04-21T21:17:08.286Z,99.20
2023-04-21T21:19:35.310Z,99.90
2023-04-21T21:22:02.217Z,99.90
2023-04-21T21:24:29.092Z,99.90
2023-04-21T21:26:57.312Z,99.90
2023-04-21T21:29:24.328Z,99.90
2023-04-21T21:31:51.252Z,99.90
2023-04-21T21:34:18.131Z,99.90
2023-04-21T21:36:44.870Z,99.90
2023-04-21T21:39:11.734Z,99.90
2023-04-21T21:41:38.551Z,99.90
2023-04-21T21:44:06.518Z,99.90
2023-04-21T21:46:36.430Z,99.90
2023-04-21T21:49:03.279Z,99.90
2023-04-21T21:51:30.008Z,99.90
2023-04-21T21:53:56.763Z,99.90
2023-04-21T21:56:25.721Z,99.90
2023-04-21T21:58:52.925Z,99.90
2023-04-21T22:01:19.726Z,99.90
2023-04-21T22:03:47.398Z,99.90
2023-04-21T22:06:16.960Z,99.90
2023-04-21T22:08:44.232Z,99.90
2023-04-21T22:11:11.023Z,99.90
2023-04-21T22:13:37.776Z,99.90
2023-04-21T22:16:04.806Z,99.90
2023-04-21T22:18:31.586Z,99.90
2023-04-21T22:20:59.123Z,99.90
2023-04-21T22:23:26.117Z,99.90
2023-04-21T22:25:53.094Z,99.90
2023-04-21T22:28:19.882Z,99.90
2023-04-21T22:30:46.723Z,99.90
2023-04-21T22:33:13.552Z,99.90
2023-04-21T22:35:40.602Z,99.90
2023-04-21T22:38:07.411Z,99.90
2023-04-21T22:40:34.258Z,99.90
2023-04-21T22:43:01.008Z,99.90
2023-04-21T22:45:27.975Z,99.90
2023-04-21T22:47:55.853Z,99.90
2023-04-21T22:50:22.778Z,99.90
2023-04-21T22:52:49.583Z,99.90
2023-04-21T22:55:16.415Z,99.90
2023-04-21T22:57:43.188Z,99.90
2023-04-21T23:00:11.117Z,99.90
2023-04-21T23:02:38.157Z,99.90
2023-04-21T23:05:05.469Z,99.90
2023-04-21T23:07:32.287Z,99.90
2023-04-21T23:09:59.174Z,99.90
2023-04-21T23:12:26.096Z,99.90
2023-04-21T23:14:52.983Z,99.90
2023-04-21T23:17:19.728Z,99.90
2023-04-21T23:19:46.494Z,99.90
2023-04-21T23:22:13.264Z,99.90
2023-04-21T23:24:40.004Z,99.90
2023-04-21T23:27:06.747Z,99.90
2023-04-21T23:29:33.624Z,99.90
2023-04-21T23:32:00.585Z,99.90
2023-04-21T23:34:27.491Z,99.90
2023-04-21T23:36:54.237Z,99.90
2023-04-21T23:39:22.465Z,99.90
2023-04-21T23:41:49.753Z,99.90
2023-04-21T23:44:16.535Z,99.90
2023-04-21T23:49:18.301Z,99.90
2023-04-21T23:51:45.198Z,99.90
2023-04-21T23:54:11.946Z,99.90
2023-04-21T23:56:38.842Z,99.90
2023-04-21T23:59:06.428Z,99.90
